Wardensville, West Virginia
Current Conditions -  °F | °C
As of 4:15 PM on Tuesday 21 Oct 2014 (Local Time) from KFRR Reporting Station
Overcast Overcast  
Wind Chill: 54°   Ceiling: 4500
Heat Index: 54°   Visibility: 10mi
Dew Point: 50°   Wind: 5mph
Humidity: 88%   Direction: 20°NNE
Pressure: 29.85"   Gusts: NA
Location:  39.08°N, 78.6°W
Report Text: KFRR 212015Z AUTO 02004KT 10SM SCT028 BKN045 OVC050 12/10 A2985 RMK AO1
Loading
Personal Weather Stations






























Interactive Weather Map
Tropical Storm Tracking
New forecast layout! Learn more

10-Day Weather Forecast

Advertisements
Track Severe Weather on mobile